createdAt,value
2023-02-15T00:07:51.320Z,78.5
2023-02-15T00:17:57.885Z,78.5
2023-02-15T00:28:04.463Z,77.5
2023-02-15T00:38:10.340Z,78.5
2023-02-15T00:48:16.898Z,79.5
2023-02-15T00:58:23.488Z,82
2023-02-15T01:08:30.152Z,80.5
2023-02-15T01:18:36.657Z,82.5
2023-02-15T01:28:43.379Z,83
2023-02-15T01:38:49.964Z,80
2023-02-15T01:48:56.452Z,80.5
2023-02-15T01:59:03.014Z,82
2023-02-15T02:09:09.770Z,81.5
2023-02-15T02:19:16.207Z,82
2023-02-15T02:29:22.849Z,81
2023-02-15T02:39:29.359Z,79.5
2023-02-15T02:49:35.349Z,79
2023-02-15T02:59:41.839Z,81.5
2023-02-15T03:09:48.475Z,80
2023-02-15T03:19:55.039Z,81
2023-02-15T03:30:01.573Z,80
2023-02-15T03:40:08.240Z,79
2023-02-15T03:50:14.836Z,78.5
2023-02-15T04:00:21.435Z,78.5
2023-02-15T04:10:28.217Z,79.5
2023-02-15T04:20:34.777Z,78.5
2023-02-15T04:30:41.415Z,78.5
2023-02-15T04:40:48.110Z,78
2023-02-15T04:50:54.704Z,78.5
2023-02-15T05:01:00.545Z,78.5
2023-02-15T05:11:07.133Z,78.5
2023-02-15T05:21:13.713Z,78.5
2023-02-15T05:31:20.307Z,78
2023-02-15T05:41:26.938Z,78
2023-02-15T05:51:33.482Z,78.5
2023-02-15T06:01:40.147Z,80.5
2023-02-15T06:11:46.617Z,82
2023-02-15T06:21:53.151Z,81.5
2023-02-15T06:31:59.671Z,80.5
2023-02-15T06:42:06.193Z,81
2023-02-15T06:52:12.738Z,81.5
2023-02-15T07:02:19.268Z,82
2023-02-15T07:12:25.819Z,83
2023-02-15T07:22:31.756Z,82.5
2023-02-15T07:32:38.293Z,83
2023-02-15T07:42:44.776Z,82
2023-02-15T07:52:51.329Z,81.5
2023-02-15T08:02:57.873Z,80.5
2023-02-15T08:13:04.404Z,81.5
2023-02-15T08:23:11.068Z,82.5
2023-02-15T08:33:17.553Z,83.5
2023-02-15T08:43:24.066Z,82
2023-02-15T08:53:30.629Z,82
2023-02-15T09:03:37.156Z,81.5
2023-02-15T09:13:43.703Z,82
2023-02-15T09:23:50.192Z,83
2023-02-15T09:33:55.995Z,83
2023-02-15T09:44:02.536Z,83
2023-02-15T09:54:09.057Z,81.5
2023-02-15T10:04:15.597Z,81
2023-02-15T10:14:22.146Z,81.5
2023-02-15T10:24:28.657Z,81
2023-02-15T10:34:35.229Z,82.5
2023-02-15T10:44:41.758Z,83
2023-02-15T10:54:48.248Z,82.5
2023-02-15T11:04:54.825Z,82.5
2023-02-15T11:15:01.375Z,83.5
2023-02-15T11:25:07.878Z,82.5
2023-02-15T11:35:14.383Z,81.5
2023-02-15T11:45:20.207Z,82
2023-02-15T11:55:26.785Z,81.5
2023-02-15T12:05:33.288Z,82
2023-02-15T12:15:39.917Z,82.5
2023-02-15T12:25:46.392Z,83
2023-02-15T12:35:52.895Z,82
2023-02-15T12:45:59.425Z,82
2023-02-15T12:56:05.977Z,82.5
2023-02-15T13:06:12.457Z,82.5
2023-02-15T13:16:19.015Z,81.5
2023-02-15T13:26:25.541Z,81
2023-02-15T13:36:32.055Z,81.5
2023-02-15T13:46:38.583Z,82
2023-02-15T13:56:45.117Z,82.5
2023-02-15T14:06:50.933Z,82
2023-02-15T14:16:57.498Z,81.5
2023-02-15T14:27:04.076Z,82
2023-02-15T14:37:10.497Z,82
2023-02-15T14:47:17.032Z,82
2023-02-15T14:57:23.759Z,82
2023-02-15T15:07:30.229Z,81
2023-02-15T15:17:36.769Z,81
2023-02-15T15:27:43.281Z,81.5
2023-02-15T15:37:49.783Z,81.5
2023-02-15T15:58:02.862Z,81.5
2023-02-15T16:08:09.391Z,82
2023-02-15T16:18:15.982Z,82
2023-02-15T16:28:21.739Z,82.5
2023-02-15T16:38:28.225Z,82.5
2023-02-15T16:48:34.758Z,82.5
2023-02-15T16:58:41.286Z,83
2023-02-15T17:08:47.816Z,82.5
2023-02-15T17:18:54.500Z,83
2023-02-15T17:29:01.031Z,83.5
2023-02-15T17:39:07.588Z,83.5
2023-02-15T17:49:14.188Z,84
2023-02-15T17:59:20.804Z,83.5
2023-02-15T18:09:27.335Z,84.5
2023-02-15T18:19:33.943Z,84.5
2023-02-15T18:29:40.494Z,85.5
2023-02-15T18:39:46.332Z,85.5
2023-02-15T18:49:53.064Z,85.5
2023-02-15T18:59:59.501Z,86
2023-02-15T19:10:06.314Z,84.5
2023-02-15T19:20:12.994Z,84.5
2023-02-15T19:30:19.465Z,84.5
2023-02-15T19:40:26.232Z,84
2023-02-15T19:50:32.793Z,83.5
2023-02-15T20:00:39.378Z,84
2023-02-15T20:10:46.136Z,84.5
2023-02-15T20:20:52.768Z,84.5
2023-02-15T20:30:59.294Z,85
2023-02-15T20:41:06.063Z,85
2023-02-15T20:51:11.932Z,85
2023-02-15T21:01:18.513Z,86
2023-02-15T21:11:25.091Z,85.5
2023-02-15T21:21:31.836Z,84.5
2023-02-15T21:31:38.252Z,84.5
2023-02-15T21:41:44.845Z,83.5
2023-02-15T21:51:51.483Z,83.5
2023-02-15T22:01:58.006Z,84.5
2023-02-15T22:22:11.232Z,84
2023-02-15T22:32:17.786Z,84
2023-02-15T22:42:24.338Z,83.5
2023-02-15T22:52:30.931Z,83.5
2023-02-15T23:02:37.507Z,84
2023-02-15T23:12:43.359Z,84
2023-02-15T23:22:50.019Z,84.5
2023-02-15T23:32:56.521Z,84
2023-02-15T23:43:03.104Z,85.5
2023-02-15T23:53:09.691Z,84.5
